createdAt,value
2022-07-29T00:02:56.000Z,38.86
2022-07-29T00:05:58.891Z,38.83
2022-07-29T00:09:03.353Z,39.10
2022-07-29T00:12:06.217Z,39.14
2022-07-29T00:15:12.139Z,39.17
2022-07-29T00:18:14.801Z,39.23
2022-07-29T00:21:17.215Z,39.40
2022-07-29T00:24:20.015Z,39.41
2022-07-29T00:27:22.887Z,39.58
2022-07-29T00:30:25.774Z,39.40
2022-07-29T00:33:28.063Z,39.39
2022-07-29T00:36:30.839Z,39.33
2022-07-29T00:39:33.060Z,39.57
2022-07-29T00:42:48.867Z,39.78
2022-07-29T00:45:51.109Z,39.75
2022-07-29T00:48:53.921Z,39.95
2022-07-29T00:51:56.151Z,40.07
2022-07-29T00:55:00.952Z,39.88
2022-07-29T00:58:05.963Z,39.85
2022-07-29T01:01:08.826Z,39.99
2022-07-29T01:04:11.178Z,40.13
2022-07-29T01:07:13.988Z,40.13
2022-07-29T01:10:16.946Z,40.17
2022-07-29T01:13:20.251Z,40.17
2022-07-29T01:16:25.262Z,40.21
2022-07-29T01:19:40.133Z,40.32
2022-07-29T01:22:51.190Z,40.54
2022-07-29T01:26:30.135Z,40.61
2022-07-29T01:29:55.050Z,40.51
2022-07-29T01:33:01.222Z,40.36
2022-07-29T01:36:06.835Z,40.43
2022-07-29T01:39:15.244Z,40.55
2022-07-29T01:42:32.799Z,40.65
2022-07-29T01:45:41.492Z,40.71
2022-07-29T01:48:54.647Z,40.82
2022-07-29T01:52:03.355Z,41.10
2022-07-29T01:55:09.307Z,41.02
2022-07-29T01:58:13.311Z,41.16
2022-07-29T02:01:16.927Z,41.24
2022-07-29T02:04:29.855Z,41.41
2022-07-29T02:07:33.992Z,41.51
2022-07-29T02:10:38.220Z,41.53
2022-07-29T02:13:42.087Z,41.74
2022-07-29T02:16:45.586Z,42.01
2022-07-29T02:19:48.593Z,42.16
2022-07-29T02:22:53.149Z,42.23
2022-07-29T02:25:59.037Z,42.46
2022-07-29T02:29:02.430Z,42.51
2022-07-29T02:32:05.761Z,42.49
2022-07-29T02:35:10.197Z,42.45
2022-07-29T02:38:32.727Z,42.38
2022-07-29T02:41:42.486Z,42.54
2022-07-29T02:44:44.900Z,42.66
2022-07-29T02:47:50.618Z,42.80
2022-07-29T02:50:55.607Z,43.05
2022-07-29T02:54:00.319Z,43.11
2022-07-29T02:57:05.407Z,43.13
2022-07-29T03:00:09.729Z,43.12
2022-07-29T03:03:13.385Z,43.13
2022-07-29T03:06:31.100Z,43.29
2022-07-29T03:09:42.722Z,43.58
2022-07-29T03:12:46.191Z,43.63
2022-07-29T03:15:48.865Z,43.49
2022-07-29T03:18:52.052Z,43.83
2022-07-29T03:21:56.851Z,43.97
2022-07-29T03:25:08.098Z,44.08
2022-07-29T03:28:10.405Z,44.16
2022-07-29T03:31:13.204Z,44.23
2022-07-29T03:34:15.895Z,44.23
2022-07-29T03:37:18.788Z,44.23
2022-07-29T03:40:24.326Z,44.35
2022-07-29T03:43:28.905Z,44.41
2022-07-29T03:46:32.834Z,44.24
2022-07-29T03:49:37.345Z,44.32
2022-07-29T03:52:39.663Z,44.81
2022-07-29T03:55:44.231Z,45.17
2022-07-29T03:58:46.759Z,45.29
2022-07-29T04:01:51.196Z,45.14
2022-07-29T04:04:54.116Z,45.30
2022-07-29T04:07:56.644Z,45.68
2022-07-29T04:11:00.904Z,45.57
2022-07-29T04:14:03.365Z,45.59
2022-07-29T04:17:06.317Z,45.67
2022-07-29T04:20:09.169Z,45.70
2022-07-29T04:23:11.852Z,45.68
2022-07-29T04:26:14.300Z,45.66
2022-07-29T04:29:16.880Z,45.66
2022-07-29T04:32:19.889Z,45.91
2022-07-29T04:35:22.451Z,46.04
2022-07-29T04:38:24.923Z,46.06
2022-07-29T04:41:32.767Z,46.30
2022-07-29T04:44:39.481Z,46.57
2022-07-29T04:47:42.326Z,46.70
2022-07-29T04:50:45.282Z,46.67
2022-07-29T04:53:47.855Z,46.80
2022-07-29T04:56:50.288Z,46.80
2022-07-29T04:59:53.000Z,46.70
2022-07-29T05:02:55.555Z,46.75
2022-07-29T05:05:58.269Z,46.22
2022-07-29T05:09:00.754Z,45.72
2022-07-29T05:12:03.287Z,45.62
2022-07-29T05:15:06.048Z,45.45
2022-07-29T05:18:08.504Z,45.73
2022-07-29T05:21:10.935Z,46.07
2022-07-29T05:24:13.814Z,45.42
2022-07-29T05:27:16.648Z,44.96
2022-07-29T05:30:19.304Z,44.99
2022-07-29T05:33:34.243Z,44.96
2022-07-29T05:36:39.291Z,44.79
2022-07-29T05:39:47.311Z,44.16
2022-07-29T05:42:52.878Z,43.67
2022-07-29T05:45:55.575Z,43.82
2022-07-29T05:48:58.175Z,43.70
2022-07-29T05:52:00.713Z,43.68
2022-07-29T05:55:05.367Z,43.35
2022-07-29T05:58:07.959Z,43.18
2022-07-29T06:01:10.496Z,42.87
2022-07-29T06:04:13.590Z,42.36
2022-07-29T06:07:17.208Z,42.20
2022-07-29T06:10:20.186Z,41.89
2022-07-29T06:13:26.120Z,41.60
2022-07-29T06:16:30.285Z,41.41
2022-07-29T06:19:34.828Z,41.84
2022-07-29T06:22:37.546Z,41.04
2022-07-29T06:25:41.283Z,40.88
2022-07-29T06:28:43.957Z,40.58
2022-07-29T06:31:46.179Z,40.32
2022-07-29T06:34:49.070Z,39.66
2022-07-29T06:37:51.949Z,41.07
2022-07-29T06:41:00.994Z,39.96
2022-07-29T06:44:03.374Z,39.29
2022-07-29T06:47:06.195Z,39.40
2022-07-29T06:50:12.301Z,38.37
2022-07-29T06:53:15.019Z,38.33
2022-07-29T06:56:17.333Z,37.34
2022-07-29T06:59:26.230Z,37.32
2022-07-29T07:02:33.262Z,37.05
2022-07-29T07:05:36.046Z,37.32
2022-07-29T07:09:40.008Z,36.84
2022-07-29T07:12:43.845Z,35.64
2022-07-29T07:15:48.800Z,35.40
2022-07-29T07:18:52.487Z,34.85
2022-07-29T07:21:55.001Z,33.41
2022-07-29T07:24:58.623Z,33.41
2022-07-29T07:28:01.447Z,32.75
2022-07-29T07:31:04.598Z,32.78
2022-07-29T07:34:07.092Z,31.76
2022-07-29T07:37:10.388Z,31.59
2022-07-29T07:40:14.183Z,31.02
2022-07-29T07:43:23.954Z,31.72
2022-07-29T07:46:26.533Z,31.44
2022-07-29T07:49:29.769Z,30.85
2022-07-29T07:52:32.348Z,30.77
2022-07-29T07:56:07.979Z,30.57
2022-07-29T07:59:03.618Z,30.54
2022-07-29T08:02:07.201Z,29.91
2022-07-29T08:05:12.586Z,29.57
2022-07-29T08:08:15.628Z,28.90
2022-07-29T08:11:18.385Z,28.19
2022-07-29T08:14:21.099Z,27.48
2022-07-29T08:17:23.801Z,27.34
2022-07-29T08:20:26.735Z,26.81
2022-07-29T08:23:46.017Z,25.94
2022-07-29T08:26:51.544Z,25.60
2022-07-29T08:29:56.774Z,25.49
2022-07-29T08:32:59.930Z,25.08
2022-07-29T08:36:03.288Z,24.01
2022-07-29T08:39:06.802Z,23.80
2022-07-29T08:42:10.563Z,23.70
2022-07-29T08:45:13.833Z,22.93
2022-07-29T08:48:21.265Z,22.82
2022-07-29T08:51:25.256Z,22.29
2022-07-29T08:54:28.904Z,21.97
2022-07-29T08:57:32.306Z,21.52
2022-07-29T09:00:43.927Z,20.72
2022-07-29T09:03:48.201Z,19.70
2022-07-29T09:06:55.437Z,19.65
2022-07-29T09:09:58.196Z,19.52
2022-07-29T09:13:00.938Z,19.02
2022-07-29T09:16:08.943Z,19.14
2022-07-29T09:19:21.861Z,19.14
2022-07-29T09:22:38.810Z,18.38
2022-07-29T09:25:44.302Z,17.40
2022-07-29T09:28:47.022Z,17.18
2022-07-29T09:31:52.703Z,16.76
2022-07-29T09:35:17.403Z,16.96
2022-07-29T09:38:20.254Z,16.57
2022-07-29T09:41:23.740Z,16.38
2022-07-29T09:44:27.006Z,16.12
2022-07-29T09:47:43.048Z,15.87
2022-07-29T09:50:49.336Z,16.11
2022-07-29T09:53:53.051Z,16.53
2022-07-29T09:56:57.295Z,15.84
2022-07-29T10:00:08.023Z,15.80
2022-07-29T10:03:15.588Z,14.86
2022-07-29T10:06:18.642Z,14.02
2022-07-29T10:09:22.365Z,14.77
2022-07-29T10:12:25.491Z,15.13
2022-07-29T10:15:30.885Z,15.79
2022-07-29T10:18:34.738Z,15.67
2022-07-29T10:21:38.820Z,14.88
2022-07-29T10:24:41.917Z,14.35
2022-07-29T10:27:46.596Z,13.93
2022-07-29T10:30:52.456Z,14.03
2022-07-29T10:34:32.489Z,14.25
2022-07-29T10:37:58.344Z,15.55
2022-07-29T10:41:31.954Z,16.75
2022-07-29T10:44:41.995Z,16.01
2022-07-29T10:47:44.529Z,15.21
2022-07-29T10:51:00.008Z,14.12
2022-07-29T10:54:06.634Z,13.71
2022-07-29T10:57:54.152Z,13.30
2022-07-29T11:00:51.296Z,13.17
2022-07-29T11:03:57.242Z,12.82
2022-07-29T11:06:59.690Z,12.18
2022-07-29T11:10:12.856Z,12.59
2022-07-29T11:13:47.185Z,13.01
2022-07-29T11:17:06.803Z,13.15
2022-07-29T11:20:31.979Z,13.24
2022-07-29T11:23:40.341Z,13.11
2022-07-29T11:26:46.464Z,12.54
2022-07-29T11:29:51.071Z,12.59
2022-07-29T11:32:53.542Z,12.77
2022-07-29T11:36:10.349Z,13.15
2022-07-29T11:42:53.061Z,13.76
2022-07-29T11:45:55.559Z,14.46
2022-07-29T11:48:59.431Z,15.16
2022-07-29T11:52:02.956Z,15.08
2022-07-29T11:55:09.950Z,14.60
2022-07-29T11:58:30.897Z,14.63
2022-07-29T12:01:33.794Z,14.67
2022-07-29T12:04:57.665Z,15.27
2022-07-29T12:07:01.815Z,13.13
2022-07-29T12:08:08.056Z,15.92
2022-07-29T12:11:21.841Z,16.75
2022-07-29T12:14:32.591Z,17.09
2022-07-29T12:17:40.399Z,17.84
2022-07-29T12:20:44.224Z,18.15
2022-07-29T12:24:01.893Z,18.39
2022-07-29T12:27:10.136Z,17.66
2022-07-29T12:30:17.580Z,17.08
2022-07-29T12:33:22.364Z,16.33
2022-07-29T12:36:25.460Z,15.79
2022-07-29T12:39:29.080Z,15.34
2022-07-29T12:42:32.658Z,14.98
2022-07-29T12:45:35.173Z,15.01
2022-07-29T12:48:43.011Z,15.63
2022-07-29T12:51:45.482Z,15.52
2022-07-29T12:54:48.557Z,15.07
2022-07-29T12:57:53.236Z,15.13
2022-07-29T13:01:17.360Z,15.05
2022-07-29T13:04:31.830Z,15.21
2022-07-29T13:07:54.644Z,15.21
2022-07-29T13:10:59.822Z,15.43
2022-07-29T13:14:07.059Z,15.25
2022-07-29T13:17:11.206Z,15.18
2022-07-29T13:20:15.150Z,15.20
2022-07-29T13:23:17.680Z,14.89
2022-07-29T13:26:20.731Z,14.93
2022-07-29T13:29:23.379Z,15.14
2022-07-29T13:32:28.999Z,15.62
2022-07-29T13:35:31.729Z,15.95
2022-07-29T13:38:35.004Z,16.28
2022-07-29T13:41:38.422Z,16.46
2022-07-29T13:44:42.748Z,16.33
2022-07-29T13:47:49.374Z,16.54
2022-07-29T13:50:52.687Z,16.25
2022-07-29T13:53:55.194Z,16.28
2022-07-29T13:56:58.739Z,16.44
2022-07-29T14:00:01.318Z,16.59
2022-07-29T14:03:11.114Z,16.94
2022-07-29T14:06:14.440Z,17.48
2022-07-29T14:09:17.752Z,17.80
2022-07-29T14:12:20.705Z,17.88
2022-07-29T14:15:24.569Z,17.72
2022-07-29T14:18:27.439Z,17.50
2022-07-29T14:21:31.148Z,17.35
2022-07-29T14:24:37.705Z,17.78
2022-07-29T14:27:40.414Z,18.32
2022-07-29T14:30:44.698Z,18.37
2022-07-29T14:33:49.268Z,18.58
2022-07-29T14:36:52.198Z,18.43
2022-07-29T14:39:55.549Z,18.57
2022-07-29T14:42:58.402Z,18.79
2022-07-29T14:46:06.504Z,18.93
2022-07-29T14:49:11.005Z,19.13
2022-07-29T14:52:13.683Z,19.42
2022-07-29T14:55:19.713Z,19.40
2022-07-29T14:58:23.693Z,19.55
2022-07-29T15:01:26.492Z,19.61
2022-07-29T15:04:29.669Z,20.00
2022-07-29T15:07:32.419Z,20.16
2022-07-29T15:10:35.683Z,20.08
2022-07-29T15:13:38.528Z,20.13
2022-07-29T15:16:44.033Z,20.11
2022-07-29T15:19:49.691Z,20.12
2022-07-29T15:22:52.434Z,20.19
2022-07-29T15:25:55.265Z,20.19
2022-07-29T15:28:57.912Z,20.31
2022-07-29T15:32:01.118Z,20.73
2022-07-29T15:35:04.420Z,20.46
2022-07-29T15:38:07.434Z,20.81
2022-07-29T15:41:10.165Z,21.02
2022-07-29T15:44:12.949Z,21.12
2022-07-29T15:47:15.560Z,21.14
2022-07-29T15:50:20.121Z,21.41
2022-07-29T15:53:22.875Z,21.72
2022-07-29T15:56:25.886Z,21.97
2022-07-29T15:59:28.756Z,22.02
2022-07-29T16:02:31.944Z,22.06
2022-07-29T16:05:34.899Z,22.25
2022-07-29T16:08:37.352Z,22.24
2022-07-29T16:11:41.794Z,22.30
2022-07-29T16:14:44.609Z,22.45
2022-07-29T16:17:47.786Z,22.47
2022-07-29T16:20:50.519Z,22.52
2022-07-29T16:23:53.465Z,22.68
2022-07-29T16:26:56.945Z,22.89
2022-07-29T16:30:00.264Z,22.81
2022-07-29T16:33:08.234Z,22.67
2022-07-29T16:36:13.206Z,22.93
2022-07-29T16:39:17.540Z,22.92
2022-07-29T16:42:36.991Z,23.04
2022-07-29T16:45:46.491Z,23.10
2022-07-29T16:48:49.995Z,23.13
2022-07-29T16:51:53.797Z,23.08
2022-07-29T16:54:56.942Z,23.17
2022-07-29T16:58:00.365Z,23.00
2022-07-29T17:01:06.622Z,23.12
2022-07-29T17:04:09.316Z,23.43
2022-07-29T17:07:12.263Z,23.22
2022-07-29T17:10:14.797Z,23.18
2022-07-29T17:13:17.805Z,23.42
2022-07-29T17:16:24.649Z,23.55
2022-07-29T17:19:33.645Z,23.77
2022-07-29T17:22:36.987Z,23.77
2022-07-29T17:25:40.060Z,23.97
2022-07-29T17:28:42.632Z,23.92
2022-07-29T17:31:45.663Z,24.11
2022-07-29T17:34:48.123Z,24.38
2022-07-29T17:37:51.544Z,24.26
2022-07-29T17:40:54.062Z,24.46
2022-07-29T17:43:57.521Z,24.47
2022-07-29T17:47:01.017Z,24.63
2022-07-29T17:50:05.347Z,24.86
2022-07-29T17:53:15.993Z,24.96
2022-07-29T17:56:19.604Z,24.99
2022-07-29T17:59:22.205Z,25.09
2022-07-29T18:02:28.493Z,25.34
2022-07-29T18:05:31.415Z,25.34
2022-07-29T18:08:34.134Z,25.40
2022-07-29T18:11:36.883Z,25.58
2022-07-29T18:14:41.727Z,25.75
2022-07-29T18:17:56.823Z,25.68
2022-07-29T18:21:00.949Z,26.08
2022-07-29T18:24:03.939Z,26.18
2022-07-29T18:27:06.804Z,26.20
2022-07-29T18:30:09.994Z,26.15
2022-07-29T18:33:21.686Z,26.62
2022-07-29T18:36:24.828Z,26.55
2022-07-29T18:39:27.268Z,26.88
2022-07-29T18:42:29.790Z,27.13
2022-07-29T18:45:32.755Z,27.36
2022-07-29T18:48:35.662Z,27.65
2022-07-29T18:51:38.943Z,27.86
2022-07-29T18:54:42.444Z,28.00
2022-07-29T18:57:54.140Z,28.47
2022-07-29T19:00:59.261Z,28.84
2022-07-29T19:04:01.937Z,29.33
2022-07-29T19:07:04.706Z,29.84
2022-07-29T19:10:08.205Z,30.07
2022-07-29T19:13:13.427Z,30.35
2022-07-29T19:16:16.432Z,30.65
2022-07-29T19:19:19.258Z,31.06
2022-07-29T19:22:21.971Z,31.34
2022-07-29T19:25:25.145Z,31.75
2022-07-29T19:28:27.820Z,32.04
2022-07-29T19:31:31.059Z,32.39
2022-07-29T19:34:52.790Z,32.60
2022-07-29T19:37:57.524Z,32.77
2022-07-29T19:41:00.604Z,33.04
2022-07-29T19:44:03.700Z,33.26
2022-07-29T19:47:06.388Z,33.55
2022-07-29T19:50:10.176Z,33.69
2022-07-29T19:53:13.056Z,33.78
2022-07-29T19:56:15.839Z,34.04
2022-07-29T19:59:23.975Z,34.23
2022-07-29T20:02:27.484Z,34.51
2022-07-29T20:05:31.229Z,34.71
2022-07-29T20:08:33.820Z,34.99
2022-07-29T20:11:39.667Z,35.39
2022-07-29T20:14:42.087Z,35.74
2022-07-29T20:17:45.207Z,35.87
2022-07-29T20:20:49.581Z,36.22
2022-07-29T20:23:53.343Z,36.45
2022-07-29T20:26:55.776Z,36.83
2022-07-29T20:29:58.867Z,37.19
2022-07-29T20:33:01.332Z,37.38
2022-07-29T20:36:04.934Z,37.62
2022-07-29T20:39:07.430Z,37.95
2022-07-29T20:42:10.401Z,38.25
2022-07-29T20:45:12.701Z,38.47
2022-07-29T20:48:15.552Z,38.68
2022-07-29T20:51:17.906Z,38.92
2022-07-29T20:54:20.651Z,39.01
2022-07-29T20:57:38.494Z,39.16
2022-07-29T21:00:42.602Z,39.27
2022-07-29T21:03:45.116Z,39.45
2022-07-29T21:06:48.081Z,39.58
2022-07-29T21:09:51.100Z,39.78
2022-07-29T21:12:54.432Z,40.18
2022-07-29T21:16:04.288Z,40.36
2022-07-29T21:19:09.280Z,40.74
2022-07-29T21:22:11.829Z,40.99
2022-07-29T21:25:14.513Z,41.22
2022-07-29T21:28:50.133Z,41.52
2022-07-29T21:31:53.590Z,41.55
2022-07-29T21:34:55.991Z,41.84
2022-07-29T21:37:58.829Z,42.11
2022-07-29T21:41:01.565Z,42.20
2022-07-29T21:44:04.516Z,42.71
2022-07-29T21:47:07.419Z,42.69
2022-07-29T21:50:10.289Z,42.84
2022-07-29T21:53:15.751Z,42.94
2022-07-29T21:56:18.882Z,43.33
2022-07-29T21:59:21.319Z,43.58
2022-07-29T22:02:24.212Z,43.67
2022-07-29T22:05:28.062Z,43.89
2022-07-29T22:08:30.680Z,44.13
2022-07-29T22:11:33.535Z,44.38
2022-07-29T22:14:36.167Z,44.51
2022-07-29T22:17:38.864Z,44.83
2022-07-29T22:20:41.681Z,45.05
2022-07-29T22:23:44.392Z,45.33
2022-07-29T22:26:46.893Z,46.01
2022-07-29T22:29:49.501Z,46.33
2022-07-29T22:32:52.194Z,46.76
2022-07-29T22:35:55.372Z,46.87
2022-07-29T22:38:58.146Z,47.23
2022-07-29T22:42:01.161Z,47.35
2022-07-29T22:45:04.336Z,47.75
2022-07-29T22:48:07.135Z,47.88
2022-07-29T22:51:09.780Z,47.91
2022-07-29T22:54:12.902Z,47.97
2022-07-29T22:57:15.446Z,48.22
2022-07-29T23:00:18.139Z,48.51
2022-07-29T23:03:21.662Z,48.61
2022-07-29T23:06:24.476Z,48.63
2022-07-29T23:09:27.168Z,48.82
2022-07-29T23:12:29.883Z,48.94
2022-07-29T23:15:32.409Z,49.03
2022-07-29T23:18:35.073Z,49.16
2022-07-29T23:21:37.708Z,49.37
2022-07-29T23:24:40.492Z,49.56
2022-07-29T23:27:43.636Z,49.43
2022-07-29T23:30:46.548Z,49.62
2022-07-29T23:33:49.192Z,49.76
2022-07-29T23:36:51.883Z,49.96
2022-07-29T23:39:54.367Z,49.67
2022-07-29T23:42:57.193Z,49.83
2022-07-29T23:46:00.211Z,49.84
2022-07-29T23:49:03.364Z,49.85
2022-07-29T23:52:06.492Z,50.05
2022-07-29T23:55:36.559Z,50.10
2022-07-29T23:58:33.635Z,50.15
